createdAt,value
2022-09-01T00:02:46.788Z,2.62
2022-09-01T00:09:01.933Z,2.50
2022-09-01T00:12:07.128Z,2.22
2022-09-01T00:15:11.479Z,2.87
2022-09-01T00:18:15.658Z,2.28
2022-09-01T00:21:20.897Z,2.75
2022-09-01T00:24:26.064Z,2.72
2022-09-01T00:27:31.015Z,2.80
2022-09-01T00:30:33.892Z,3.10
2022-09-01T00:33:38.557Z,2.65
2022-09-01T00:36:41.537Z,2.80
2022-09-01T00:39:44.027Z,2.50
2022-09-01T00:42:48.857Z,2.72
2022-09-01T00:45:52.376Z,2.58
2022-09-01T00:49:00.999Z,3.40
2022-09-01T00:52:11.476Z,3.33
2022-09-01T00:55:34.603Z,3.25
2022-09-01T00:58:38.287Z,2.80
2022-09-01T01:01:41.026Z,2.70
2022-09-01T01:04:44.037Z,2.97
2022-09-01T01:07:47.967Z,2.78
2022-09-01T01:10:50.512Z,2.87
2022-09-01T01:13:57.192Z,2.22
2022-09-01T01:17:00.995Z,2.92
2022-09-01T01:20:25.996Z,2.87
2022-09-01T01:23:43.541Z,2.30
2022-09-01T01:26:47.453Z,2.55
2022-09-01T01:29:52.147Z,2.50
2022-09-01T01:32:57.854Z,2.60
2022-09-01T01:36:01.907Z,3.47
2022-09-01T01:39:07.518Z,2.50
2022-09-01T01:42:12.255Z,2.10
2022-09-01T01:45:17.755Z,3.20
2022-09-01T01:48:23.879Z,2.40
2022-09-01T01:51:26.769Z,2.33
2022-09-01T01:54:31.320Z,2.67
2022-09-01T01:57:35.462Z,2.70
2022-09-01T02:00:38.579Z,2.70
2022-09-01T02:03:41.245Z,3.90
2022-09-01T02:06:47.901Z,2.67
2022-09-01T02:09:50.880Z,1.80
2022-09-01T02:12:53.374Z,2.15
2022-09-01T02:15:58.197Z,2.62
2022-09-01T02:19:02.313Z,2.35
2022-09-01T02:22:05.089Z,2.10
2022-09-01T02:25:08.082Z,1.93
2022-09-01T02:28:15.806Z,2.20
2022-09-01T02:31:20.012Z,3.22
2022-09-01T02:34:24.818Z,2.67
2022-09-01T02:37:27.608Z,2.22
2022-09-01T02:40:31.649Z,2.47
2022-09-01T02:43:34.173Z,2.20
2022-09-01T02:46:38.211Z,2.08
2022-09-01T02:49:40.699Z,2.00
2022-09-01T02:52:46.195Z,2.45
2022-09-01T02:55:48.703Z,2.35
2022-09-01T02:58:51.890Z,2.40
2022-09-01T03:01:55.171Z,1.75
2022-09-01T03:08:03.555Z,1.70
2022-09-01T03:11:12.975Z,2.20
2022-09-01T03:14:17.000Z,1.98
2022-09-01T03:17:19.709Z,1.60
2022-09-01T03:20:22.253Z,1.87
2022-09-01T03:23:25.430Z,1.97
2022-09-01T03:26:27.897Z,1.80
2022-09-01T03:29:30.970Z,2.10
2022-09-01T03:32:33.543Z,2.10
2022-09-01T03:35:36.693Z,2.30
2022-09-01T03:38:39.103Z,2.15
2022-09-01T03:41:42.835Z,1.83
2022-09-01T03:44:45.475Z,3.08
2022-09-01T03:47:51.103Z,1.75
2022-09-01T03:50:53.587Z,1.62
2022-09-01T03:53:59.138Z,1.83
2022-09-01T03:57:05.959Z,1.60
2022-09-01T04:00:13.625Z,2.33
2022-09-01T04:03:28.986Z,2.53
2022-09-01T04:06:34.237Z,2.00
2022-09-01T04:09:37.176Z,2.00
2022-09-01T04:12:39.968Z,1.83
2022-09-01T04:15:42.773Z,2.05
2022-09-01T04:18:48.967Z,1.75
2022-09-01T04:21:55.221Z,1.80
2022-09-01T04:24:59.216Z,1.87
2022-09-01T04:28:03.711Z,2.25
2022-09-01T04:31:14.884Z,2.00
2022-09-01T04:34:17.388Z,2.33
2022-09-01T04:37:21.970Z,2.12
2022-09-01T04:40:27.521Z,2.28
2022-09-01T04:43:30.363Z,2.35
2022-09-01T04:46:39.093Z,1.58
2022-09-01T04:49:43.470Z,2.20
2022-09-01T04:52:47.719Z,2.47
2022-09-01T04:55:54.725Z,1.92
2022-09-01T04:58:57.349Z,2.37
2022-09-01T05:02:00.815Z,1.90
2022-09-01T05:05:03.510Z,2.67
2022-09-01T05:08:08.008Z,2.00
2022-09-01T05:11:11.419Z,2.15
2022-09-01T05:14:19.079Z,1.90
2022-09-01T05:17:21.773Z,2.95
2022-09-01T05:20:25.109Z,2.17
2022-09-01T05:23:28.889Z,2.12
2022-09-01T05:26:34.661Z,1.92
2022-09-01T05:29:38.515Z,2.75
2022-09-01T05:32:41.452Z,2.37
2022-09-01T05:35:56.750Z,2.80
2022-09-01T05:39:00.749Z,2.03
2022-09-01T05:42:04.691Z,2.87
2022-09-01T05:45:10.838Z,2.37
2022-09-01T05:48:16.014Z,2.58
2022-09-01T05:51:43.389Z,3.95
2022-09-01T05:54:48.042Z,2.10
2022-09-01T05:57:53.990Z,3.35
2022-09-01T06:00:58.450Z,2.30
2022-09-01T06:04:04.711Z,2.87
2022-09-01T06:07:11.856Z,1.90
2022-09-01T06:10:17.583Z,1.98
2022-09-01T06:13:21.892Z,2.08
2022-09-01T06:16:29.781Z,2.00
2022-09-01T06:19:37.129Z,1.90
2022-09-01T06:22:41.131Z,3.25
2022-09-01T06:25:46.832Z,2.15
2022-09-01T06:28:55.043Z,2.72
2022-09-01T06:31:58.889Z,2.33
2022-09-01T06:35:03.394Z,2.25
2022-09-01T06:38:10.204Z,2.00
2022-09-01T06:41:13.219Z,2.20
2022-09-01T06:44:22.271Z,2.30
2022-09-01T06:47:28.650Z,2.37
2022-09-01T06:53:57.021Z,1.90
2022-09-01T06:58:03.519Z,2.20
2022-09-01T07:00:28.765Z,2.20
2022-09-01T07:03:33.083Z,1.90
2022-09-01T07:10:17.745Z,2.42
2022-09-01T07:13:23.964Z,2.53
2022-09-01T07:16:33.319Z,3.35
2022-09-01T07:19:53.055Z,1.90
2022-09-01T07:23:06.422Z,2.35
2022-09-01T07:26:10.156Z,1.73
2022-09-01T07:29:14.135Z,2.70
2022-09-01T07:36:25.755Z,2.30
2022-09-01T07:45:59.734Z,1.87
2022-09-01T07:49:29.658Z,2.03
2022-09-01T07:52:26.771Z,2.05
2022-09-01T07:55:31.937Z,1.67
2022-09-01T07:58:38.317Z,1.73
2022-09-01T08:01:42.841Z,2.40
2022-09-01T08:04:46.430Z,1.98
2022-09-01T08:07:52.581Z,2.33
2022-09-01T08:11:04.329Z,2.05
2022-09-01T08:14:07.823Z,1.90
2022-09-01T08:17:34.375Z,1.83
2022-09-01T08:20:37.731Z,2.05
2022-09-01T08:23:44.253Z,1.73
2022-09-01T08:26:48.828Z,2.10
2022-09-01T08:32:54.911Z,1.73
2022-09-01T08:35:57.771Z,1.42
2022-09-01T08:39:01.272Z,2.45
2022-09-01T08:42:10.119Z,2.42
2022-09-01T08:45:33.192Z,2.33
2022-09-01T08:52:17.437Z,1.80
2022-09-01T08:55:27.394Z,1.90
2022-09-01T08:58:32.582Z,2.08
2022-09-01T09:02:01.848Z,1.98
2022-09-01T09:05:27.970Z,1.90
2022-09-01T09:08:57.990Z,1.58
2022-09-01T09:12:22.589Z,1.58
2022-09-01T09:15:33.912Z,1.77
2022-09-01T09:18:54.925Z,1.95
2022-09-01T09:22:01.218Z,1.70
2022-09-01T09:25:08.297Z,1.58
2022-09-01T09:28:11.182Z,1.40
2022-09-01T09:31:51.490Z,1.50
2022-09-01T09:34:54.903Z,1.70
2022-09-01T09:38:21.556Z,1.80
2022-09-01T09:41:27.292Z,2.03
2022-09-01T09:44:32.818Z,1.77
2022-09-01T09:47:45.340Z,1.92
2022-09-01T09:50:48.067Z,2.00
2022-09-01T09:53:54.277Z,2.85
2022-09-01T09:57:08.994Z,1.70
2022-09-01T10:00:32.635Z,1.67
2022-09-01T10:03:42.456Z,1.50
2022-09-01T10:06:46.851Z,1.37
2022-09-01T10:09:51.208Z,2.28
2022-09-01T10:12:55.398Z,1.70
2022-09-01T10:16:05.610Z,1.25
2022-09-01T10:19:13.797Z,1.52
2022-09-01T10:22:20.353Z,1.83
2022-09-01T10:25:29.222Z,3.10
2022-09-01T10:28:33.880Z,1.48
2022-09-01T10:31:37.257Z,1.92
2022-09-01T10:34:42.107Z,1.52
2022-09-01T10:37:46.015Z,1.25
2022-09-01T10:41:07.185Z,1.20
2022-09-01T10:44:19.342Z,1.42
2022-09-01T10:47:33.905Z,1.33
2022-09-01T10:50:36.775Z,1.45
2022-09-01T10:53:42.405Z,1.70
2022-09-01T10:56:52.358Z,1.02
2022-09-01T10:59:58.100Z,1.23
2022-09-01T11:10:52.927Z,1.77
2022-09-01T11:13:58.944Z,1.67
2022-09-01T11:17:29.367Z,1.33
2022-09-01T11:20:36.483Z,1.20
2022-09-01T11:23:39.387Z,1.17
2022-09-01T11:26:47.457Z,1.42
2022-09-01T11:30:07.615Z,1.10
2022-09-01T11:33:16.275Z,1.10
2022-09-01T11:36:19.725Z,0.90
2022-09-01T11:39:31.266Z,0.95
2022-09-01T11:42:45.768Z,0.98
2022-09-01T11:46:06.977Z,1.02
2022-09-01T11:49:24.352Z,1.20
2022-09-01T11:52:30.582Z,1.08
2022-09-01T11:55:36.177Z,1.27
2022-09-01T11:58:39.353Z,1.20
2022-09-01T12:04:44.360Z,1.35
2022-09-01T12:07:47.490Z,1.05
2022-09-01T12:10:50.185Z,1.00
2022-09-01T12:14:10.877Z,1.10
2022-09-01T12:17:20.901Z,1.08
2022-09-01T12:20:31.141Z,1.17
2022-09-01T12:23:40.325Z,1.65
2022-09-01T12:26:44.106Z,1.48
2022-09-01T12:29:50.123Z,1.00
2022-09-01T12:33:22.845Z,1.10
2022-09-01T12:36:24.088Z,1.33
2022-09-01T12:39:33.919Z,1.30
2022-09-01T12:42:41.471Z,1.25
2022-09-01T12:45:47.815Z,2.03
2022-09-01T12:48:50.706Z,1.65
2022-09-01T12:52:26.577Z,0.93
2022-09-01T12:59:36.055Z,0.77
2022-09-01T13:03:18.129Z,0.70
2022-09-01T13:06:20.470Z,0.73
2022-09-01T13:09:23.227Z,1.00
2022-09-01T13:12:25.652Z,0.80
2022-09-01T13:15:28.678Z,0.88
2022-09-01T13:18:31.251Z,1.70
2022-09-01T13:21:36.474Z,0.80
2022-09-01T13:24:40.518Z,1.20
2022-09-01T13:27:44.779Z,0.93
2022-09-01T13:31:28.729Z,1.23
2022-09-01T13:34:23.474Z,0.90
2022-09-01T13:37:26.697Z,1.30
2022-09-01T13:40:29.537Z,0.95
2022-09-01T13:43:32.291Z,1.05
2022-09-01T13:46:35.571Z,0.98
2022-09-01T13:49:42.626Z,0.70
2022-09-01T13:52:55.128Z,0.93
2022-09-01T14:02:04.572Z,1.47
2022-09-01T14:05:07.958Z,0.90
2022-09-01T14:11:19.855Z,1.10
2022-09-01T14:14:22.877Z,0.82
2022-09-01T14:17:26.354Z,0.80
2022-09-01T14:20:36.679Z,2.05
2022-09-01T14:23:39.994Z,0.90
2022-09-01T14:26:42.414Z,0.90
2022-09-01T14:29:54.913Z,1.00
2022-09-01T14:32:59.517Z,0.90
2022-09-01T14:36:03.279Z,0.80
2022-09-01T14:39:05.792Z,1.00
2022-09-01T14:45:18.466Z,0.80
2022-09-01T14:48:21.401Z,1.23
2022-09-01T14:52:10.464Z,1.25
2022-09-01T14:54:50.565Z,1.80
2022-09-01T14:57:54.574Z,1.30
2022-09-01T15:01:03.586Z,1.20
2022-09-01T15:04:10.306Z,0.80
2022-09-01T15:10:24.911Z,0.77
2022-09-01T15:13:28.258Z,0.90
2022-09-01T15:16:30.671Z,1.00
2022-09-01T15:19:33.442Z,0.93
2022-09-01T15:22:35.926Z,0.60
2022-09-01T15:25:38.970Z,0.88
2022-09-01T15:28:41.565Z,0.85
2022-09-01T15:31:44.986Z,0.65
2022-09-01T15:34:47.358Z,0.70
2022-09-01T15:37:52.292Z,0.65
